createdAt,value
2023-01-04T00:01:52.907Z,65.37
2023-01-04T00:04:19.657Z,65.14
2023-01-04T00:06:46.309Z,66.43
2023-01-04T00:09:12.903Z,66.76
2023-01-04T00:11:39.616Z,66.85
2023-01-04T00:14:06.479Z,65.85
2023-01-04T00:16:33.107Z,66.43
2023-01-04T00:18:59.865Z,65.75
2023-01-04T00:21:29.258Z,66.13
2023-01-04T00:23:59.563Z,66.22
2023-01-04T00:26:31.621Z,65.93
2023-01-04T00:29:03.290Z,66.90
2023-01-04T00:31:30.381Z,67.14
2023-01-04T00:33:58.852Z,66.23
2023-01-04T00:36:26.560Z,67.13
2023-01-04T00:39:10.174Z,66.03
2023-01-04T00:42:00.221Z,65.04
2023-01-04T00:44:28.865Z,64.44
2023-01-04T00:46:55.867Z,66.55
2023-01-04T00:49:22.525Z,66.40
2023-01-04T00:51:49.134Z,65.68
2023-01-04T00:54:26.065Z,66.13
2023-01-04T00:56:52.858Z,65.34
2023-01-04T00:59:20.889Z,65.01
2023-01-04T01:01:48.225Z,63.75
2023-01-04T01:04:18.304Z,65.69
2023-01-04T01:06:45.394Z,66.24
2023-01-04T01:09:12.218Z,65.55
2023-01-04T01:11:40.244Z,65.92
2023-01-04T01:14:08.736Z,66.30
2023-01-04T01:16:54.201Z,64.63
2023-01-04T01:19:22.101Z,64.64
2023-01-04T01:21:48.753Z,64.54
2023-01-04T01:24:17.816Z,64.80
2023-01-04T01:26:44.937Z,64.72
2023-01-04T01:29:11.633Z,64.32
2023-01-04T01:31:38.452Z,63.27
2023-01-04T01:34:05.142Z,62.73
2023-01-04T01:36:31.883Z,64.88
2023-01-04T01:38:59.072Z,63.81
2023-01-04T01:41:32.081Z,65.25
2023-01-04T01:44:07.169Z,65.48
2023-01-04T01:46:42.925Z,63.38
2023-01-04T01:49:12.623Z,63.84
2023-01-04T01:51:40.310Z,65.25
2023-01-04T01:54:13.191Z,66.11
2023-01-04T01:56:43.426Z,66.14
2023-01-04T01:59:12.610Z,66.44
2023-01-04T02:01:40.151Z,66.40
2023-01-04T02:04:08.317Z,66.45
2023-01-04T02:06:40.608Z,65.42
2023-01-04T02:09:08.398Z,64.50
2023-01-04T02:11:35.054Z,64.87
2023-01-04T02:14:22.911Z,65.08
2023-01-04T02:17:02.273Z,65.51
2023-01-04T02:19:43.819Z,64.02
2023-01-04T02:22:25.406Z,64.44
2023-01-04T02:25:10.628Z,64.67
2023-01-04T02:27:54.367Z,65.56
2023-01-04T02:30:45.646Z,67.25
2023-01-04T02:33:26.855Z,67.08
2023-01-04T02:36:12.906Z,66.00
2023-01-04T02:38:56.134Z,66.20
2023-01-04T02:41:47.996Z,65.27
2023-01-04T02:45:04.611Z,66.70
2023-01-04T02:47:59.003Z,64.21
2023-01-04T02:50:40.550Z,64.87
2023-01-04T02:53:15.179Z,64.11
2023-01-04T02:55:53.606Z,64.83
2023-01-04T02:59:03.663Z,65.32
2023-01-04T03:02:10.483Z,68.47
2023-01-04T03:05:06.744Z,67.81
2023-01-04T03:08:07.235Z,69.04
2023-01-04T03:11:02.325Z,69.60
2023-01-04T03:13:39.647Z,69.86
2023-01-04T03:16:18.858Z,68.08
2023-01-04T03:18:51.093Z,69.13
2023-01-04T03:21:21.649Z,68.75
2023-01-04T03:24:08.536Z,68.83
2023-01-04T03:27:00.319Z,68.68
2023-01-04T03:30:08.322Z,68.30
2023-01-04T03:33:07.154Z,67.30
2023-01-04T03:35:45.351Z,70.06
2023-01-04T03:38:35.006Z,69.56
2023-01-04T03:41:44.688Z,70.02
2023-01-04T03:44:31.413Z,70.01
2023-01-04T03:47:25.521Z,70.98
2023-01-04T03:50:01.038Z,70.86
2023-01-04T03:52:31.132Z,71.26
2023-01-04T03:55:00.651Z,71.45
2023-01-04T03:57:27.509Z,72.15
2023-01-04T04:00:01.028Z,72.43
2023-01-04T04:02:30.916Z,71.55
2023-01-04T04:05:16.262Z,72.21
2023-01-04T04:08:02.353Z,73.55
2023-01-04T04:10:29.006Z,73.62
2023-01-04T04:12:55.684Z,73.01
2023-01-04T04:15:22.391Z,71.31
2023-01-04T04:18:00.150Z,69.71
2023-01-04T04:20:26.770Z,69.84
2023-01-04T04:22:53.736Z,71.92
2023-01-04T04:25:20.339Z,73.03
2023-01-04T04:27:46.904Z,73.76
2023-01-04T04:30:13.862Z,72.34
2023-01-04T04:32:40.533Z,72.52
2023-01-04T04:35:07.454Z,71.58
2023-01-04T04:37:35.090Z,70.84
2023-01-04T04:40:02.206Z,71.15
2023-01-04T04:42:28.817Z,72.00
2023-01-04T04:44:55.443Z,71.23
2023-01-04T04:47:22.189Z,71.78
2023-01-04T04:49:48.836Z,72.67
2023-01-04T04:52:15.451Z,72.33
2023-01-04T04:54:42.065Z,71.51
2023-01-04T04:57:08.773Z,70.75
2023-01-04T04:59:36.309Z,71.73
2023-01-04T05:02:03.304Z,70.13
2023-01-04T05:04:30.006Z,70.56
2023-01-04T05:06:56.619Z,71.07
2023-01-04T05:09:23.281Z,70.85
2023-01-04T05:12:08.112Z,70.74
2023-01-04T05:14:34.751Z,72.34
2023-01-04T05:17:02.707Z,72.09
2023-01-04T05:19:29.675Z,73.27
2023-01-04T05:21:56.295Z,73.65
2023-01-04T05:24:22.875Z,72.87
2023-01-04T05:26:49.524Z,72.89
2023-01-04T05:29:34.624Z,71.69
2023-01-04T05:32:02.056Z,73.06
2023-01-04T05:34:28.767Z,73.38
2023-01-04T05:36:55.451Z,72.80
2023-01-04T05:39:22.041Z,72.77
2023-01-04T05:42:07.048Z,71.70
2023-01-04T05:44:33.697Z,72.58
2023-01-04T05:47:00.280Z,72.74
2023-01-04T05:49:26.902Z,73.10
2023-01-04T05:51:53.549Z,71.88
2023-01-04T05:54:21.789Z,69.82
2023-01-04T05:56:48.466Z,68.87
2023-01-04T05:59:16.276Z,70.67
2023-01-04T06:01:43.108Z,70.53
2023-01-04T06:04:09.872Z,70.32
2023-01-04T06:06:36.603Z,70.53
2023-01-04T06:09:03.389Z,70.21
2023-01-04T06:11:29.975Z,70.02
2023-01-04T06:13:56.585Z,69.39
2023-01-04T06:16:23.769Z,68.60
2023-01-04T06:18:50.442Z,68.66
2023-01-04T06:21:17.201Z,68.42
2023-01-04T06:23:43.829Z,69.59
2023-01-04T06:26:10.454Z,69.07
2023-01-04T06:28:40.694Z,67.98
2023-01-04T06:31:10.119Z,67.55
2023-01-04T06:33:37.267Z,68.06
2023-01-04T06:36:05.829Z,67.99
2023-01-04T06:38:33.257Z,68.83
2023-01-04T06:40:59.917Z,68.46
2023-01-04T06:43:26.634Z,69.24
2023-01-04T06:45:53.295Z,68.29
2023-01-04T06:48:19.968Z,68.34
2023-01-04T06:50:46.588Z,67.98
2023-01-04T06:53:13.220Z,67.15
2023-01-04T06:55:41.002Z,66.00
2023-01-04T06:58:07.671Z,67.68
2023-01-04T07:00:34.375Z,67.74
2023-01-04T07:03:14.014Z,68.75
2023-01-04T07:05:42.704Z,68.98
2023-01-04T07:08:09.300Z,71.16
2023-01-04T07:10:36.442Z,69.82
2023-01-04T07:13:03.681Z,69.67
2023-01-04T07:15:38.483Z,69.07
2023-01-04T07:18:07.968Z,68.02
2023-01-04T07:20:34.751Z,67.22
2023-01-04T07:23:02.598Z,67.61
2023-01-04T07:25:29.155Z,69.23
2023-01-04T07:27:56.221Z,71.31
2023-01-04T07:30:24.056Z,70.86
2023-01-04T07:32:54.916Z,70.76
2023-01-04T07:35:22.493Z,71.41
2023-01-04T07:37:55.682Z,70.90
2023-01-04T07:40:25.018Z,69.55
2023-01-04T07:42:58.653Z,68.81
2023-01-04T07:45:26.337Z,70.12
2023-01-04T07:47:53.022Z,70.58
2023-01-04T07:50:19.650Z,70.28
2023-01-04T07:52:46.308Z,70.29
2023-01-04T07:55:12.941Z,71.20
2023-01-04T07:57:39.604Z,71.76
2023-01-04T08:00:06.876Z,71.99
2023-01-04T08:02:33.603Z,72.17
2023-01-04T08:05:00.547Z,70.86
2023-01-04T08:07:27.283Z,71.10
2023-01-04T08:09:54.029Z,71.84
2023-01-04T08:12:20.787Z,71.00
2023-01-04T08:14:47.492Z,70.53
2023-01-04T08:17:16.434Z,71.46
2023-01-04T08:19:43.153Z,70.32
2023-01-04T08:22:09.901Z,72.02
2023-01-04T08:24:41.748Z,71.27
2023-01-04T08:27:08.958Z,69.66
2023-01-04T08:29:35.815Z,70.14
2023-01-04T08:32:03.116Z,70.86
2023-01-04T08:34:31.012Z,71.62
2023-01-04T08:36:58.618Z,71.08
2023-01-04T08:39:25.342Z,69.39
2023-01-04T08:42:20.358Z,71.05
2023-01-04T08:44:39.594Z,71.03
2023-01-04T08:47:06.409Z,71.17
2023-01-04T08:49:33.226Z,71.78
2023-01-04T08:51:59.990Z,71.19
2023-01-04T08:54:26.723Z,70.86
2023-01-04T08:56:53.466Z,70.55
2023-01-04T08:59:20.078Z,72.06
2023-01-04T09:01:47.080Z,70.48
2023-01-04T09:04:14.054Z,68.87
2023-01-04T09:06:40.979Z,67.81
2023-01-04T09:09:07.637Z,71.13
2023-01-04T09:11:35.578Z,72.38
2023-01-04T09:14:07.844Z,71.80
2023-01-04T09:16:36.075Z,69.18
2023-01-04T09:19:02.950Z,67.92
2023-01-04T09:21:29.750Z,68.39
2023-01-04T09:23:59.544Z,68.45
2023-01-04T09:26:26.764Z,69.30
2023-01-04T09:28:55.108Z,71.83
2023-01-04T09:31:25.128Z,70.69
2023-01-04T09:36:39.365Z,70.91
2023-01-04T09:39:06.414Z,69.82
2023-01-04T09:41:38.057Z,71.17
2023-01-04T09:44:22.999Z,70.07
2023-01-04T09:47:00.154Z,69.88
2023-01-04T09:49:52.005Z,68.88
2023-01-04T09:52:32.691Z,69.37
2023-01-04T09:55:36.520Z,70.13
2023-01-04T09:57:58.463Z,69.29
2023-01-04T10:00:44.071Z,69.13
2023-01-04T10:03:25.393Z,68.91
2023-01-04T10:05:55.377Z,69.68
2023-01-04T10:08:23.148Z,69.33
2023-01-04T10:10:52.427Z,69.02
2023-01-04T10:13:34.845Z,69.58
2023-01-04T10:16:44.266Z,69.18
2023-01-04T10:19:43.472Z,68.89
2023-01-04T10:22:02.623Z,68.74
2023-01-04T10:24:48.196Z,68.09
2023-01-04T10:28:02.742Z,68.17
2023-01-04T10:30:40.263Z,69.54
2023-01-04T10:33:15.503Z,67.05
2023-01-04T10:35:45.538Z,67.31
2023-01-04T10:38:23.949Z,65.59
2023-01-04T10:40:50.630Z,65.71
2023-01-04T10:44:09.826Z,66.75
2023-01-04T10:46:28.960Z,66.49
2023-01-04T10:49:10.456Z,65.83
2023-01-04T10:51:49.107Z,66.49
2023-01-04T10:54:21.465Z,66.81
2023-01-04T10:56:56.510Z,66.39
2023-01-04T11:00:02.317Z,66.98
2023-01-04T11:02:55.528Z,67.76
2023-01-04T11:05:28.135Z,68.22
2023-01-04T11:08:02.079Z,68.51
2023-01-04T11:10:28.622Z,67.61
2023-01-04T11:12:55.417Z,67.81
2023-01-04T11:15:22.406Z,68.16
2023-01-04T11:17:50.835Z,69.03
2023-01-04T11:20:18.302Z,67.63
2023-01-04T11:23:26.442Z,66.70
2023-01-04T11:25:57.481Z,67.28
2023-01-04T11:28:37.136Z,66.30
2023-01-04T11:31:10.671Z,65.39
2023-01-04T11:33:58.461Z,65.29
2023-01-04T11:36:31.164Z,64.93
2023-01-04T11:38:58.815Z,64.55
2023-01-04T11:41:25.772Z,64.30
2023-01-04T11:44:07.267Z,64.43
2023-01-04T11:46:34.851Z,65.32
2023-01-04T11:49:02.111Z,64.71
2023-01-04T11:51:31.751Z,64.21
2023-01-04T11:54:19.943Z,63.60
2023-01-04T11:57:11.800Z,63.04
2023-01-04T11:59:39.416Z,62.45
2023-01-04T12:05:29.923Z,63.90
2023-01-04T12:07:58.669Z,64.60
2023-01-04T12:10:28.116Z,64.12
2023-01-04T12:12:55.889Z,63.71
2023-01-04T12:15:41.351Z,62.82
2023-01-04T12:18:19.491Z,63.58
2023-01-04T12:20:46.189Z,63.63
2023-01-04T12:23:13.743Z,62.56
2023-01-04T12:25:51.602Z,63.08
2023-01-04T12:28:41.935Z,63.89
2023-01-04T12:31:21.248Z,65.15
2023-01-04T12:33:51.305Z,64.25
2023-01-04T12:36:21.210Z,62.97
2023-01-04T12:39:04.313Z,64.01
2023-01-04T12:41:33.858Z,63.19
2023-01-04T12:44:02.105Z,61.86
2023-01-04T12:46:47.227Z,62.32
2023-01-04T12:49:28.975Z,62.66
2023-01-04T12:55:03.018Z,62.68
2023-01-04T12:57:38.350Z,63.25
2023-01-04T13:00:07.820Z,62.40
2023-01-04T13:02:36.794Z,63.32
2023-01-04T13:05:54.836Z,63.30
2023-01-04T13:08:11.323Z,62.55
2023-01-04T13:10:42.217Z,62.34
2023-01-04T13:13:46.554Z,61.44
2023-01-04T13:16:45.484Z,63.27
2023-01-04T13:19:31.237Z,62.09
2023-01-04T13:21:58.858Z,64.17
2023-01-04T13:24:34.409Z,64.10
2023-01-04T13:27:17.249Z,64.88
2023-01-04T13:29:44.574Z,63.78
2023-01-04T13:32:15.163Z,63.97
2023-01-04T13:34:56.244Z,62.85
2023-01-04T13:37:27.404Z,61.89
2023-01-04T13:40:02.142Z,63.18
2023-01-04T13:42:36.208Z,63.08
2023-01-04T13:45:21.489Z,63.68
2023-01-04T13:47:51.774Z,62.44
2023-01-04T13:50:40.499Z,62.37
2023-01-04T13:53:17.553Z,61.94
2023-01-04T13:55:44.204Z,61.57
2023-01-04T13:58:20.463Z,60.93
2023-01-04T14:00:52.841Z,61.03
2023-01-04T14:03:34.875Z,60.95
2023-01-04T14:06:14.440Z,61.78
2023-01-04T14:08:53.284Z,61.52
2023-01-04T14:11:44.201Z,62.52
2023-01-04T14:14:39.892Z,62.09
2023-01-04T14:17:12.163Z,63.80
2023-01-04T14:19:46.505Z,64.46
2023-01-04T14:22:45.352Z,63.67
2023-01-04T14:25:49.160Z,64.78
2023-01-04T14:28:18.894Z,65.37
2023-01-04T14:30:53.985Z,65.51
2023-01-04T14:33:26.256Z,67.91
2023-01-04T14:36:08.279Z,66.40
2023-01-04T14:38:48.388Z,66.11
2023-01-04T14:41:31.299Z,66.11
2023-01-04T14:44:00.634Z,67.35
2023-01-04T14:46:29.469Z,67.13
2023-01-04T14:48:56.273Z,65.95
2023-01-04T14:54:20.471Z,66.32
2023-01-04T14:56:51.273Z,65.24
2023-01-04T14:59:18.059Z,64.55
2023-01-04T15:01:44.872Z,63.76
2023-01-04T15:04:17.979Z,64.22
2023-01-04T15:06:57.921Z,65.92
2023-01-04T15:09:24.960Z,65.88
2023-01-04T15:11:51.651Z,66.29
2023-01-04T15:14:18.587Z,66.37
2023-01-04T15:16:45.927Z,65.98
2023-01-04T15:19:12.720Z,65.85
2023-01-04T15:21:41.537Z,65.03
2023-01-04T15:24:09.313Z,64.77
2023-01-04T15:26:36.074Z,65.05
2023-01-04T15:29:03.565Z,64.91
2023-01-04T15:31:36.702Z,65.70
2023-01-04T15:34:05.358Z,65.33
2023-01-04T15:36:32.164Z,66.22
2023-01-04T15:38:58.856Z,66.07
2023-01-04T15:41:43.781Z,64.87
2023-01-04T15:44:11.419Z,65.48
2023-01-04T15:46:38.256Z,64.61
2023-01-04T15:49:05.221Z,64.82
2023-01-04T15:51:31.892Z,65.01
2023-01-04T15:53:58.582Z,64.18
2023-01-04T15:56:26.646Z,63.67
2023-01-04T15:58:55.124Z,62.97
2023-01-04T16:01:23.026Z,63.13
2023-01-04T16:03:53.915Z,63.56
2023-01-04T16:06:21.283Z,63.08
2023-01-04T16:08:49.786Z,63.03
2023-01-04T16:11:19.568Z,62.58
2023-01-04T16:13:48.235Z,63.09
2023-01-04T16:16:16.063Z,64.06
2023-01-04T16:18:50.642Z,63.16
2023-01-04T16:21:21.792Z,64.09
2023-01-04T16:23:54.855Z,63.85
2023-01-04T16:26:25.488Z,63.38
2023-01-04T16:28:54.498Z,63.17
2023-01-04T16:31:22.546Z,63.14
2023-01-04T16:33:55.068Z,62.69
2023-01-04T16:36:21.826Z,62.54
2023-01-04T16:38:48.680Z,62.76
2023-01-04T16:41:17.192Z,62.52
2023-01-04T16:43:51.306Z,65.62
2023-01-04T16:46:24.608Z,63.97
2023-01-04T16:49:06.018Z,63.78
2023-01-04T16:51:35.442Z,63.26
2023-01-04T16:54:04.214Z,63.97
2023-01-04T16:56:31.525Z,63.64
2023-01-04T16:58:58.201Z,63.26
2023-01-04T17:01:38.333Z,62.39
2023-01-04T17:04:10.465Z,62.64
2023-01-04T17:06:40.519Z,63.38
2023-01-04T17:09:10.376Z,63.97
2023-01-04T17:12:18.981Z,63.57
2023-01-04T17:14:28.098Z,63.31
2023-01-04T17:16:55.124Z,63.58
2023-01-04T17:19:24.946Z,63.96
2023-01-04T17:21:52.357Z,63.85
2023-01-04T17:24:19.147Z,63.66
2023-01-04T17:26:45.978Z,63.78
2023-01-04T17:29:14.867Z,64.74
2023-01-04T17:31:43.413Z,64.48
2023-01-04T17:34:21.902Z,63.49
2023-01-04T17:36:49.461Z,63.47
2023-01-04T17:39:16.121Z,63.13
2023-01-04T17:41:42.921Z,63.51
2023-01-04T17:44:10.509Z,63.31
2023-01-04T17:46:37.820Z,63.61
2023-01-04T17:49:24.122Z,63.90
2023-01-04T17:51:54.603Z,63.54
2023-01-04T17:54:21.320Z,63.25
2023-01-04T17:56:48.025Z,63.66
2023-01-04T17:59:14.948Z,63.36
2023-01-04T18:01:41.768Z,63.21
2023-01-04T18:04:09.248Z,62.86
2023-01-04T18:06:37.039Z,62.64
2023-01-04T18:09:06.659Z,62.69
2023-01-04T18:11:34.073Z,63.61
2023-01-04T18:14:03.009Z,64.58
2023-01-04T18:16:32.968Z,64.20
2023-01-04T18:19:00.586Z,64.33
2023-01-04T18:21:31.026Z,64.52
2023-01-04T18:29:33.241Z,64.27
2023-01-04T18:32:00.034Z,65.22
2023-01-04T18:34:27.105Z,65.64
2023-01-04T18:36:54.433Z,65.74
2023-01-04T18:39:23.827Z,66.08
2023-01-04T18:41:50.538Z,65.74
2023-01-04T18:44:34.449Z,65.94
2023-01-04T18:47:02.756Z,65.16
2023-01-04T18:49:35.496Z,64.82
2023-01-04T18:52:03.087Z,64.84
2023-01-04T18:54:29.856Z,65.44
2023-01-04T18:57:01.025Z,65.62
2023-01-04T18:59:30.505Z,65.67
2023-01-04T19:02:01.842Z,65.56
2023-01-04T19:04:31.112Z,64.99
2023-01-04T19:07:03.693Z,65.60
2023-01-04T19:09:35.107Z,65.30
2023-01-04T19:12:01.728Z,64.50
2023-01-04T19:14:28.380Z,65.53
2023-01-04T19:16:55.127Z,64.74
2023-01-04T19:19:21.992Z,65.40
2023-01-04T19:21:48.811Z,65.21
2023-01-04T19:24:15.461Z,64.78
2023-01-04T19:26:42.190Z,65.38
2023-01-04T19:29:09.001Z,65.92
2023-01-04T19:31:35.979Z,65.90
2023-01-04T19:34:03.044Z,65.51
2023-01-04T19:36:29.976Z,65.41
2023-01-04T19:38:57.724Z,65.58
2023-01-04T19:41:33.351Z,66.03
2023-01-04T19:44:05.792Z,66.06
2023-01-04T19:46:32.873Z,66.09
2023-01-04T19:48:59.980Z,65.93
2023-01-04T19:51:28.037Z,66.20
2023-01-04T19:53:55.029Z,65.65
2023-01-04T19:56:21.707Z,65.86
2023-01-04T19:58:48.553Z,65.61
2023-01-04T20:01:16.760Z,65.66
2023-01-04T20:03:43.971Z,66.32
2023-01-04T20:06:12.230Z,66.14
2023-01-04T20:08:39.860Z,65.87
2023-01-04T20:11:07.973Z,65.85
2023-01-04T20:13:35.705Z,65.45
2023-01-04T20:16:06.870Z,66.10
2023-01-04T20:18:33.852Z,66.22
2023-01-04T20:21:00.794Z,65.83
2023-01-04T20:23:27.486Z,65.56
2023-01-04T20:25:54.743Z,65.34
2023-01-04T20:28:23.724Z,64.93
2023-01-04T20:31:04.702Z,65.15
2023-01-04T20:33:31.508Z,64.79
2023-01-04T20:36:03.838Z,65.13
2023-01-04T20:38:34.698Z,64.68
2023-01-04T20:41:04.848Z,64.54
2023-01-04T20:43:34.543Z,64.69
2023-01-04T20:46:02.649Z,64.65
2023-01-04T20:48:29.665Z,64.42
2023-01-04T20:50:57.308Z,64.56
2023-01-04T20:53:24.108Z,64.87
2023-01-04T20:55:50.833Z,64.76
2023-01-04T20:58:18.017Z,65.28
2023-01-04T21:00:46.459Z,65.31
2023-01-04T21:03:14.154Z,65.83
2023-01-04T21:05:43.676Z,65.34
2023-01-04T21:08:11.951Z,65.44
2023-01-04T21:10:43.787Z,66.12
2023-01-04T21:13:12.115Z,66.39
2023-01-04T21:15:39.783Z,66.61
2023-01-04T21:18:07.202Z,65.80
2023-01-04T21:20:33.932Z,65.13
2023-01-04T21:23:00.611Z,65.11
2023-01-04T21:25:27.463Z,64.87
2023-01-04T21:27:54.465Z,64.38
2023-01-04T21:30:21.466Z,63.94
2023-01-04T21:32:48.273Z,64.18
2023-01-04T21:35:15.029Z,64.35
2023-01-04T21:37:41.692Z,64.92
2023-01-04T21:40:08.991Z,65.99
2023-01-04T21:42:35.659Z,66.74
2023-01-04T21:45:02.329Z,66.16
2023-01-04T21:47:32.814Z,67.11
2023-01-04T21:49:59.730Z,66.67
2023-01-04T21:52:26.439Z,65.91
2023-01-04T21:54:53.193Z,65.83
2023-01-04T21:57:19.906Z,66.15
2023-01-04T21:59:46.643Z,65.80
2023-01-04T22:02:18.380Z,66.12
2023-01-04T22:04:46.113Z,66.51
2023-01-04T22:07:12.742Z,66.09
2023-01-04T22:09:39.438Z,65.78
2023-01-04T22:12:06.572Z,65.08
2023-01-04T22:14:34.093Z,64.81
2023-01-04T22:17:01.192Z,64.74
2023-01-04T22:19:28.549Z,65.12
2023-01-04T22:21:55.328Z,65.28
2023-01-04T22:24:22.323Z,64.68
2023-01-04T22:26:50.684Z,64.69
2023-01-04T22:29:18.688Z,64.14
2023-01-04T22:31:45.324Z,63.86
2023-01-04T22:34:12.287Z,64.00
2023-01-04T22:36:38.947Z,64.35
2023-01-04T22:39:06.502Z,64.38
2023-01-04T22:41:33.292Z,64.39
2023-01-04T22:44:05.678Z,64.43
2023-01-04T22:46:34.063Z,64.25
2023-01-04T22:49:02.289Z,64.10
2023-01-04T22:51:30.289Z,64.02
2023-01-04T22:53:59.534Z,63.92
2023-01-04T22:56:27.042Z,63.59
2023-01-04T22:58:55.868Z,63.65
2023-01-04T23:01:24.887Z,63.83
2023-01-04T23:03:52.108Z,63.66
2023-01-04T23:06:19.469Z,63.43
2023-01-04T23:08:46.119Z,63.26
2023-01-04T23:11:17.963Z,63.05
2023-01-04T23:13:45.502Z,63.46
2023-01-04T23:16:20.118Z,63.19
2023-01-04T23:18:47.033Z,63.91
2023-01-04T23:21:15.250Z,65.01
2023-01-04T23:23:42.319Z,64.65
2023-01-04T23:26:13.905Z,64.60
2023-01-04T23:28:43.425Z,64.67
2023-01-04T23:31:12.726Z,64.50
2023-01-04T23:33:39.604Z,64.59
2023-01-04T23:36:27.238Z,64.65
2023-01-04T23:38:58.986Z,64.84
2023-01-04T23:41:44.984Z,64.55
2023-01-04T23:47:08.166Z,64.03
2023-01-04T23:49:36.985Z,64.02
2023-01-04T23:52:04.765Z,65.51
2023-01-04T23:54:31.776Z,65.55
2023-01-04T23:57:03.983Z,65.12
2023-01-04T23:59:31.029Z,65.03
